Disclaimer

Please do not use the information listed here in-flight or in-navigation, as they are not provided to us by the airports but are provided by volunteers, so they might be outdated.

Search


Regions


Airport information page

No radio frequency information is available.

Airport informations:
Latitude: 49° 26' 05.84" N
Longitude: 002° 36' 07.09" W
Elevation: 336 feet - 102 meters
Operating hours: Remarks
Operating agency: Civil government, landing fees and diplomatic clearance may be required
Timezone: UTC 0(+1DT) - Last Sunday in March to last Sunday in October
Fuel: Jet A1, without icing nhibitor.

100/130 MIL Spec, low lead, aviation gasoline (BLUE)

Runway information:
09/27 - 4800 x 148 feet< - >1463 x 45 meters

Recent METARs:
EGJB 211820Z 13014KT 9999 FEW020 07/03 Q1013
EGJB 211850Z 13014KT 9999 FEW020 07/03 Q1013
EGJB 211920Z 12014KT 9999 FEW018 06/03 Q1014

Airport on the map: